createdAt,value
2023-03-13T00:03:27.187Z,3.88
2023-03-13T00:08:30.174Z,4.43
2023-03-13T00:13:32.337Z,4.22
2023-03-13T00:18:34.292Z,3.60
2023-03-13T00:23:38.367Z,4.07
2023-03-13T00:28:42.061Z,4.35
2023-03-13T00:33:46.592Z,2.72
2023-03-13T00:38:48.571Z,3.38
2023-03-13T00:43:50.836Z,2.88
2023-03-13T00:48:53.138Z,3.78
2023-03-13T00:53:56.434Z,3.50
2023-03-13T00:59:01.517Z,3.47
2023-03-13T01:04:09.563Z,3.38
2023-03-13T01:09:17.060Z,3.42
2023-03-13T01:14:20.632Z,2.75
2023-03-13T01:19:22.599Z,2.83
2023-03-13T01:24:24.794Z,3.70
2023-03-13T01:29:26.774Z,3.75
2023-03-13T01:34:28.725Z,2.97
2023-03-13T01:39:30.644Z,3.45
2023-03-13T01:44:57.148Z,3.83
2023-03-13T01:50:00.813Z,3.28
2023-03-13T01:55:17.875Z,3.90
2023-03-13T02:00:30.171Z,3.05
2023-03-13T02:05:32.593Z,2.95
2023-03-13T02:10:42.442Z,3.60
2023-03-13T02:15:45.405Z,4.30
2023-03-13T02:20:49.952Z,3.10
2023-03-13T02:25:56.553Z,3.00
2023-03-13T02:31:06.596Z,2.47
2023-03-13T02:36:09.751Z,2.65
2023-03-13T02:41:13.794Z,4.28
2023-03-13T02:46:18.828Z,3.55
2023-03-13T02:51:26.704Z,2.45
2023-03-13T02:56:33.630Z,3.25
2023-03-13T03:01:36.160Z,2.97
2023-03-13T03:06:38.551Z,2.88
2023-03-13T03:11:40.898Z,2.58
2023-03-13T03:16:47.558Z,2.63
2023-03-13T03:21:50.097Z,2.25
2023-03-13T03:26:54.405Z,3.95
2023-03-13T03:32:01.639Z,3.13
2023-03-13T03:37:05.842Z,3.75
2023-03-13T03:42:09.685Z,2.35
2023-03-13T03:47:12.760Z,2.40
2023-03-13T03:52:19.545Z,2.50
2023-03-13T03:57:21.776Z,3.17
2023-03-13T04:02:23.894Z,2.28
2023-03-13T04:07:26.471Z,3.50
2023-03-13T04:12:29.435Z,3.00
2023-03-13T04:17:33.565Z,2.95
2023-03-13T04:22:36.605Z,2.95
2023-03-13T04:27:38.728Z,2.88
2023-03-13T04:32:41.943Z,2.40
2023-03-13T04:37:44.003Z,3.22
2023-03-13T04:43:09.225Z,3.00
2023-03-13T04:48:29.855Z,4.80
2023-03-13T04:53:54.515Z,3.80
2023-03-13T04:59:06.601Z,3.22
2023-03-13T05:04:31.551Z,3.58
2023-03-13T05:09:52.204Z,2.05
2023-03-13T05:15:12.944Z,3.60
2023-03-13T05:20:44.464Z,2.85
2023-03-13T05:26:07.497Z,3.47
2023-03-13T05:31:45.201Z,2.95
2023-03-13T05:37:07.599Z,3.78
2023-03-13T05:42:27.082Z,4.80
2023-03-13T05:47:36.908Z,3.35
2023-03-13T05:53:02.087Z,3.20
2023-03-13T05:58:24.397Z,3.13
2023-03-13T06:03:43.186Z,2.95
2023-03-13T06:08:47.311Z,2.95
2023-03-13T06:13:52.037Z,3.85
2023-03-13T06:19:01.063Z,4.18
2023-03-13T06:24:03.100Z,3.13
2023-03-13T06:29:05.007Z,2.25
2023-03-13T06:34:07.157Z,2.83
2023-03-13T06:39:09.980Z,2.78
2023-03-13T06:44:12.089Z,2.80
2023-03-13T06:49:14.038Z,3.67
2023-03-13T06:54:16.125Z,2.80
2023-03-13T06:59:18.072Z,3.90
2023-03-13T07:04:20.376Z,2.90
2023-03-13T07:09:22.354Z,3.83
2023-03-13T07:14:24.608Z,3.17
2023-03-13T07:19:27.566Z,3.00
2023-03-13T07:24:29.579Z,2.58
2023-03-13T07:29:31.758Z,2.78
2023-03-13T07:34:33.715Z,2.22
2023-03-13T07:39:35.682Z,3.13
2023-03-13T07:44:37.642Z,1.58
2023-03-13T07:49:42.892Z,2.88
2023-03-13T07:54:44.857Z,2.72
2023-03-13T07:59:46.906Z,2.30
2023-03-13T08:04:53.215Z,2.33
2023-03-13T08:09:55.153Z,2.40
2023-03-13T08:14:57.529Z,1.63
2023-03-13T08:19:59.519Z,2.53
2023-03-13T08:25:01.438Z,2.17
2023-03-13T08:30:03.639Z,2.17
2023-03-13T08:35:06.327Z,1.92
2023-03-13T08:40:11.782Z,2.22
2023-03-13T08:45:13.791Z,1.98
2023-03-13T08:50:15.921Z,1.73
2023-03-13T08:55:17.997Z,1.77
2023-03-13T09:00:20.331Z,1.90
2023-03-13T09:05:22.230Z,1.65
2023-03-13T09:10:24.186Z,1.75
2023-03-13T09:15:26.136Z,1.55
2023-03-13T09:20:28.044Z,1.38
2023-03-13T09:25:29.944Z,1.40
2023-03-13T09:30:31.916Z,1.00
2023-03-13T09:35:34.053Z,1.65
2023-03-13T09:40:41.325Z,1.25
2023-03-13T09:45:48.451Z,1.48
2023-03-13T09:51:19.420Z,1.05
2023-03-13T10:01:31.444Z,1.30
2023-03-13T10:06:41.862Z,1.10
2023-03-13T10:17:20.150Z,0.80
2023-03-13T10:22:26.966Z,0.95
2023-03-13T10:27:29.023Z,0.70
2023-03-13T10:32:31.226Z,0.70
2023-03-13T10:37:41.616Z,0.60
2023-03-13T10:47:57.603Z,0.85
2023-03-13T10:53:19.917Z,0.57
2023-03-13T10:58:30.677Z,1.20
2023-03-13T11:03:34.509Z,1.50
2023-03-13T11:08:37.870Z,2.97
2023-03-13T11:13:44.221Z,2.03
2023-03-13T11:19:02.244Z,4.20
2023-03-13T11:24:13.644Z,4.10
2023-03-13T11:29:47.725Z,4.97
2023-03-13T11:34:58.668Z,1.10
2023-03-13T11:40:26.729Z,1.35
2023-03-13T11:46:05.601Z,0.80
2023-03-13T11:51:52.929Z,0.85
2023-03-13T11:57:00.009Z,0.52
2023-03-13T12:02:28.016Z,0.70
2023-03-13T12:07:43.071Z,1.05
2023-03-13T12:12:52.526Z,1.00
2023-03-13T12:18:03.111Z,0.70
2023-03-13T12:23:17.245Z,1.17
2023-03-13T12:28:33.934Z,0.80
2023-03-13T12:33:54.337Z,0.75
2023-03-13T12:39:07.744Z,0.80
2023-03-13T12:44:18.853Z,0.63
2023-03-13T12:49:35.298Z,0.70
2023-03-13T12:54:40.036Z,0.57
2023-03-13T12:59:44.249Z,0.60
2023-03-13T13:04:49.688Z,0.80
2023-03-13T13:10:09.897Z,0.98
2023-03-13T13:15:27.108Z,0.90
2023-03-13T13:20:47.457Z,0.70
2023-03-13T13:25:49.940Z,0.75
2023-03-13T13:30:55.795Z,0.90
2023-03-13T13:36:23.279Z,0.90
2023-03-13T13:41:34.166Z,1.00
2023-03-13T13:46:36.577Z,0.90
2023-03-13T13:51:39.874Z,0.93
2023-03-13T13:56:45.561Z,0.80
2023-03-13T14:02:10.970Z,0.70
2023-03-13T14:07:18.877Z,0.70
2023-03-13T14:12:38.373Z,0.63
2023-03-13T14:17:48.173Z,0.95
2023-03-13T14:22:51.465Z,0.83
2023-03-13T14:27:54.928Z,0.90
2023-03-13T14:32:56.901Z,0.80
2023-03-13T14:38:02.883Z,1.25
2023-03-13T14:43:05.267Z,1.00
2023-03-13T14:48:34.354Z,0.80
2023-03-13T14:53:36.614Z,0.90
2023-03-13T14:58:38.576Z,1.15
2023-03-13T15:03:48.645Z,0.80
2023-03-13T15:09:19.933Z,0.80
2023-03-13T15:19:48.860Z,2.25
2023-03-13T15:25:05.012Z,1.50
2023-03-13T15:30:07.936Z,1.00
2023-03-13T15:35:32.637Z,0.90
2023-03-13T15:40:34.681Z,0.80
2023-03-13T15:45:38.856Z,0.70
2023-03-13T15:50:40.752Z,0.85
2023-03-13T16:00:52.881Z,0.77
2023-03-13T16:05:56.607Z,0.80
2023-03-13T16:10:58.686Z,1.05
2023-03-13T16:16:00.785Z,0.60
2023-03-13T16:21:02.780Z,0.70
2023-03-13T16:26:12.805Z,0.70
2023-03-13T16:31:27.760Z,0.82
2023-03-13T16:36:32.029Z,1.10
2023-03-13T16:41:34.078Z,2.22
2023-03-13T16:46:43.306Z,1.70
2023-03-13T16:51:47.986Z,0.95
2023-03-13T16:56:49.858Z,0.80
2023-03-13T17:01:52.431Z,1.30
2023-03-13T17:06:54.277Z,1.00
2023-03-13T17:11:56.103Z,1.33
2023-03-13T17:16:58.056Z,1.10
2023-03-13T17:21:59.875Z,1.30
2023-03-13T17:27:01.731Z,0.95
2023-03-13T17:32:04.247Z,0.88
2023-03-13T17:37:15.623Z,1.40
2023-03-13T17:42:18.785Z,1.25
2023-03-13T17:47:24.415Z,1.20
2023-03-13T17:52:26.764Z,1.33
2023-03-13T17:57:29.059Z,1.30
2023-03-13T18:02:31.648Z,1.55
2023-03-13T18:07:35.660Z,1.55
2023-03-13T18:12:37.998Z,1.45
2023-03-13T18:17:40.965Z,1.65
2023-03-13T18:22:43.395Z,1.20
2023-03-13T18:27:46.028Z,1.45
2023-03-13T18:32:48.685Z,1.90
2023-03-13T18:37:50.628Z,1.30
2023-03-13T18:42:52.547Z,1.50
2023-03-13T18:47:54.879Z,1.60
2023-03-13T18:52:58.921Z,1.55
2023-03-13T18:58:01.096Z,2.45
2023-03-13T19:03:03.079Z,1.88
2023-03-13T19:08:05.041Z,2.88
2023-03-13T19:13:06.973Z,1.92
2023-03-13T19:18:11.834Z,1.50
2023-03-13T19:23:13.801Z,1.52
2023-03-13T19:28:15.860Z,1.63
2023-03-13T19:33:18.277Z,1.50
2023-03-13T19:38:20.404Z,1.63
2023-03-13T19:43:22.332Z,1.63
2023-03-13T19:48:24.374Z,1.35
2023-03-13T19:53:26.221Z,1.95
2023-03-13T19:58:28.154Z,2.78
2023-03-13T20:03:30.107Z,1.10
2023-03-13T20:08:32.030Z,1.00
2023-03-13T20:13:33.951Z,0.80
2023-03-13T20:18:35.870Z,0.57
2023-03-13T20:23:37.761Z,0.60
2023-03-13T20:28:42.377Z,0.80
2023-03-13T20:33:44.238Z,1.35
2023-03-13T20:38:46.541Z,1.08
2023-03-13T20:43:48.402Z,1.30
2023-03-13T20:48:50.376Z,0.70
2023-03-13T20:53:52.206Z,0.80
2023-03-13T20:58:54.061Z,0.70
2023-03-13T21:03:55.893Z,0.93
2023-03-13T21:08:57.720Z,0.60
2023-03-13T21:13:59.544Z,0.57
2023-03-13T21:19:01.463Z,0.60
2023-03-13T21:24:03.671Z,0.63
2023-03-13T21:29:06.305Z,0.57
2023-03-13T21:34:08.691Z,0.60
2023-03-13T21:39:12.155Z,0.63
2023-03-13T21:44:15.913Z,0.65
2023-03-13T21:49:17.875Z,0.77
2023-03-13T21:54:19.676Z,0.70
2023-03-13T21:59:26.355Z,0.50
2023-03-13T22:04:28.205Z,0.50
2023-03-13T22:09:30.026Z,0.50
2023-03-13T22:14:31.874Z,0.57
2023-03-13T22:19:34.393Z,0.75
2023-03-13T22:24:36.336Z,0.70
2023-03-13T22:29:38.202Z,0.52
2023-03-13T22:34:44.982Z,0.65
2023-03-13T22:39:46.868Z,0.57
2023-03-13T22:44:48.733Z,0.55
2023-03-13T22:49:50.687Z,0.80
2023-03-13T22:54:52.510Z,0.68
2023-03-13T22:59:54.605Z,0.80
2023-03-13T23:04:58.622Z,0.73
2023-03-13T23:10:00.539Z,1.35
2023-03-13T23:15:02.402Z,0.85
2023-03-13T23:20:13.246Z,0.98
2023-03-13T23:25:15.908Z,0.85
2023-03-13T23:30:18.746Z,1.15
2023-03-13T23:35:20.768Z,0.70
2023-03-13T23:40:23.836Z,1.00
2023-03-13T23:45:25.728Z,0.90
2023-03-13T23:50:27.786Z,1.52
2023-03-13T23:55:29.637Z,1.70
